sensor_id;sensor_type;location;lat;lon;timestamp;pressure;altitude;pressure_sealevel;temperature;humidity
12182;BME280;6154;51.550;12.138;2023-10-19T00:01:58;99204.66;;;11.54;64.60
12182;BME280;6154;51.550;12.138;2023-10-19T00:04:26;99195.97;;;11.63;64.44
12182;BME280;6154;51.550;12.138;2023-10-19T00:07:00;99188.62;;;11.66;64.78
12182;BME280;6154;51.550;12.138;2023-10-19T00:09:27;99190.44;;;11.66;64.69
12182;BME280;6154;51.550;12.138;2023-10-19T00:12:03;99182.72;;;11.63;64.85
12182;BME280;6154;51.550;12.138;2023-10-19T00:14:33;99183.66;;;11.62;64.75
12182;BME280;6154;51.550;12.138;2023-10-19T00:17:02;99184.97;;;11.78;64.37
12182;BME280;6154;51.550;12.138;2023-10-19T00:19:33;99180.41;;;11.69;64.79
12182;BME280;6154;51.550;12.138;2023-10-19T00:22:10;99173.31;;;11.59;65.08
12182;BME280;6154;51.550;12.138;2023-10-19T00:24:42;99181.41;;;11.57;64.66
12182;BME280;6154;51.550;12.138;2023-10-19T00:27:12;99180.78;;;11.65;64.89
12182;BME280;6154;51.550;12.138;2023-10-19T00:29:44;99181.75;;;11.75;64.96
12182;BME280;6154;51.550;12.138;2023-10-19T00:32:16;99182.34;;;11.78;64.37
12182;BME280;6154;51.550;12.138;2023-10-19T00:34:46;99180.31;;;11.93;64.15
12182;BME280;6154;51.550;12.138;2023-10-19T00:37:20;99179.59;;;11.80;64.55
12182;BME280;6154;51.550;12.138;2023-10-19T00:39:54;99176.31;;;11.76;64.58
12182;BME280;6154;51.550;12.138;2023-10-19T00:42:24;99173.06;;;11.95;64.10
12182;BME280;6154;51.550;12.138;2023-10-19T00:44:58;99169.81;;;12.03;64.04
12182;BME280;6154;51.550;12.138;2023-10-19T00:47:31;99162.56;;;12.05;64.20
12182;BME280;6154;51.550;12.138;2023-10-19T00:50:08;99159.78;;;12.06;64.00
12182;BME280;6154;51.550;12.138;2023-10-19T00:52:44;99151.25;;;11.92;63.90
12182;BME280;6154;51.550;12.138;2023-10-19T00:55:18;99153.38;;;12.09;63.75
12182;BME280;6154;51.550;12.138;2023-10-19T00:57:49;99153.63;;;12.06;63.52
12182;BME280;6154;51.550;12.138;2023-10-19T01:00:17;99147.31;;;12.18;63.17
12182;BME280;6154;51.550;12.138;2023-10-19T01:02:57;99144.16;;;12.24;63.21
12182;BME280;6154;51.550;12.138;2023-10-19T01:05:31;99140.28;;;12.28;63.05
12182;BME280;6154;51.550;12.138;2023-10-19T01:08:06;99141.88;;;12.20;63.31
12182;BME280;6154;51.550;12.138;2023-10-19T01:10:47;99131.13;;;11.89;64.07
12182;BME280;6154;51.550;12.138;2023-10-19T01:13:19;99124.53;;;12.16;64.01
12182;BME280;6154;51.550;12.138;2023-10-19T01:15:54;99121.12;;;12.25;63.63
12182;BME280;6154;51.550;12.138;2023-10-19T01:18:24;99124.37;;;11.96;63.85
12182;BME280;6154;51.550;12.138;2023-10-19T01:20:56;99108.81;;;11.92;64.35
12182;BME280;6154;51.550;12.138;2023-10-19T01:23:26;99108.09;;;12.22;63.72
12182;BME280;6154;51.550;12.138;2023-10-19T01:25:56;99105.50;;;12.11;64.35
12182;BME280;6154;51.550;12.138;2023-10-19T01:28:32;99092.09;;;12.23;63.65
12182;BME280;6154;51.550;12.138;2023-10-19T01:31:16;99089.53;;;12.22;63.88
12182;BME280;6154;51.550;12.138;2023-10-19T01:33:50;99090.88;;;11.95;64.15
12182;BME280;6154;51.550;12.138;2023-10-19T01:36:21;99088.44;;;12.03;64.33
12182;BME280;6154;51.550;12.138;2023-10-19T01:38:57;99083.25;;;12.02;64.33
12182;BME280;6154;51.550;12.138;2023-10-19T01:41:28;99082.38;;;12.13;63.95
12182;BME280;6154;51.550;12.138;2023-10-19T01:43:58;99080.56;;;12.13;64.01
12182;BME280;6154;51.550;12.138;2023-10-19T01:46:31;99069.44;;;12.19;63.92
12182;BME280;6154;51.550;12.138;2023-10-19T01:49:02;99063.28;;;12.19;63.84
12182;BME280;6154;51.550;12.138;2023-10-19T01:51:31;99067.81;;;12.28;63.86
12182;BME280;6154;51.550;12.138;2023-10-19T01:54:07;99059.72;;;12.29;63.79
12182;BME280;6154;51.550;12.138;2023-10-19T01:56:35;99046.72;;;12.26;63.95
12182;BME280;6154;51.550;12.138;2023-10-19T01:59:06;99046.31;;;12.31;64.12
12182;BME280;6154;51.550;12.138;2023-10-19T02:01:35;99034.81;;;12.42;63.80
12182;BME280;6154;51.550;12.138;2023-10-19T02:04:05;99030.75;;;12.17;63.99
12182;BME280;6154;51.550;12.138;2023-10-19T02:06:35;99022.16;;;12.24;63.78
12182;BME280;6154;51.550;12.138;2023-10-19T02:09:07;99020.34;;;12.25;63.84
12182;BME280;6154;51.550;12.138;2023-10-19T02:11:45;99014.97;;;12.15;64.12
12182;BME280;6154;51.550;12.138;2023-10-19T02:14:15;99013.16;;;12.16;63.81
12182;BME280;6154;51.550;12.138;2023-10-19T02:16:44;99000.03;;;12.35;63.66
12182;BME280;6154;51.550;12.138;2023-10-19T02:19:14;98994.72;;;12.35;64.01
12182;BME280;6154;51.550;12.138;2023-10-19T02:21:41;99004.75;;;12.11;64.83
12182;BME280;6154;51.550;12.138;2023-10-19T02:24:11;99004.66;;;12.22;64.49
12182;BME280;6154;51.550;12.138;2023-10-19T02:26:44;98994.31;;;12.19;64.86
12182;BME280;6154;51.550;12.138;2023-10-19T02:29:14;98989.03;;;12.19;64.60
12182;BME280;6154;51.550;12.138;2023-10-19T02:31:42;98999.91;;;12.16;64.73
12182;BME280;6154;51.550;12.138;2023-10-19T02:34:11;98997.06;;;12.07;64.86
12182;BME280;6154;51.550;12.138;2023-10-19T02:36:43;99000.09;;;12.03;65.04
12182;BME280;6154;51.550;12.138;2023-10-19T02:39:14;99002.75;;;12.24;65.12
12182;BME280;6154;51.550;12.138;2023-10-19T02:41:44;98989.59;;;12.01;65.40
12182;BME280;6154;51.550;12.138;2023-10-19T02:44:14;98984.25;;;12.13;65.07
12182;BME280;6154;51.550;12.138;2023-10-19T02:46:48;98980.94;;;12.20;64.96
12182;BME280;6154;51.550;12.138;2023-10-19T02:49:20;98968.69;;;12.29;64.96
12182;BME280;6154;51.550;12.138;2023-10-19T02:51:49;98967.28;;;12.25;64.91
12182;BME280;6154;51.550;12.138;2023-10-19T02:54:20;98971.94;;;12.12;64.96
12182;BME280;6154;51.550;12.138;2023-10-19T02:56:50;98971.44;;;12.18;64.81
12182;BME280;6154;51.550;12.138;2023-10-19T02:59:21;98965.09;;;12.09;64.81
12182;BME280;6154;51.550;12.138;2023-10-19T03:01:50;98962.72;;;12.06;65.07
12182;BME280;6154;51.550;12.138;2023-10-19T03:04:19;98957.75;;;12.13;65.20
12182;BME280;6154;51.550;12.138;2023-10-19T03:06:55;98960.12;;;12.16;65.12
12182;BME280;6154;51.550;12.138;2023-10-19T03:09:25;98953.00;;;12.16;65.03
12182;BME280;6154;51.550;12.138;2023-10-19T03:11:57;98942.34;;;12.06;65.36
12182;BME280;6154;51.550;12.138;2023-10-19T03:14:30;98942.88;;;12.31;65.43
12182;BME280;6154;51.550;12.138;2023-10-19T03:16:59;98936.13;;;12.17;65.33
12182;BME280;6154;51.550;12.138;2023-10-19T03:19:28;98930.81;;;12.17;65.12
12182;BME280;6154;51.550;12.138;2023-10-19T03:21:55;98930.16;;;12.25;64.99
12182;BME280;6154;51.550;12.138;2023-10-19T03:24:28;98921.03;;;12.18;65.27
12182;BME280;6154;51.550;12.138;2023-10-19T03:27:09;98924.31;;;12.31;65.25
12182;BME280;6154;51.550;12.138;2023-10-19T03:29:41;98916.44;;;12.20;64.83
12182;BME280;6154;51.550;12.138;2023-10-19T03:32:13;98923.00;;;12.16;65.37
12182;BME280;6154;51.550;12.138;2023-10-19T03:34:44;98920.41;;;12.25;65.37
12182;BME280;6154;51.550;12.138;2023-10-19T03:37:15;98911.97;;;12.20;65.20
12182;BME280;6154;51.550;12.138;2023-10-19T03:39:48;98913.38;;;12.15;65.63
12182;BME280;6154;51.550;12.138;2023-10-19T03:42:18;98915.00;;;12.06;66.04
12182;BME280;6154;51.550;12.138;2023-10-19T03:44:48;98909.47;;;12.19;66.16
12182;BME280;6154;51.550;12.138;2023-10-19T03:47:20;98904.66;;;12.03;66.32
12182;BME280;6154;51.550;12.138;2023-10-19T03:49:53;98897.53;;;12.34;65.67
12182;BME280;6154;51.550;12.138;2023-10-19T03:52:21;98891.97;;;12.37;65.13
12182;BME280;6154;51.550;12.138;2023-10-19T03:54:50;98888.06;;;12.41;65.25
12182;BME280;6154;51.550;12.138;2023-10-19T03:57:19;98884.84;;;12.37;65.40
12182;BME280;6154;51.550;12.138;2023-10-19T03:59:51;98867.38;;;12.35;65.53
12182;BME280;6154;51.550;12.138;2023-10-19T04:02:24;98881.63;;;12.34;65.97
12182;BME280;6154;51.550;12.138;2023-10-19T04:04:56;98878.13;;;12.33;65.82
12182;BME280;6154;51.550;12.138;2023-10-19T04:07:25;98866.94;;;12.30;65.68
12182;BME280;6154;51.550;12.138;2023-10-19T04:09:55;98866.19;;;12.18;65.94
12182;BME280;6154;51.550;12.138;2023-10-19T04:12:38;98867.34;;;12.25;66.23
12182;BME280;6154;51.550;12.138;2023-10-19T04:15:10;98870.84;;;12.26;66.22
12182;BME280;6154;51.550;12.138;2023-10-19T04:17:40;98864.69;;;12.25;66.38
12182;BME280;6154;51.550;12.138;2023-10-19T04:20:10;98850.94;;;12.11;66.95
12182;BME280;6154;51.550;12.138;2023-10-19T04:22:55;98845.38;;;12.14;67.49
12182;BME280;6154;51.550;12.138;2023-10-19T04:25:26;98843.31;;;12.17;67.17
12182;BME280;6154;51.550;12.138;2023-10-19T04:27:56;98837.69;;;12.11;66.98
12182;BME280;6154;51.550;12.138;2023-10-19T04:30:27;98832.09;;;12.04;67.60
12182;BME280;6154;51.550;12.138;2023-10-19T04:32:56;98829.31;;;12.05;67.36
12182;BME280;6154;51.550;12.138;2023-10-19T04:35:25;98821.22;;;12.07;67.54
12182;BME280;6154;51.550;12.138;2023-10-19T04:37:57;98818.59;;;12.17;67.59
12182;BME280;6154;51.550;12.138;2023-10-19T04:40:28;98817.63;;;12.18;68.15
12182;BME280;6154;51.550;12.138;2023-10-19T04:42:57;98820.59;;;12.24;67.30
12182;BME280;6154;51.550;12.138;2023-10-19T04:45:27;98821.09;;;12.18;67.12
12182;BME280;6154;51.550;12.138;2023-10-19T04:47:56;98811.19;;;12.20;66.85
12182;BME280;6154;51.550;12.138;2023-10-19T04:50:25;98813.97;;;12.09;67.31
12182;BME280;6154;51.550;12.138;2023-10-19T04:52:53;98807.53;;;12.12;67.50
12182;BME280;6154;51.550;12.138;2023-10-19T04:55:21;98797.91;;;12.11;67.65
12182;BME280;6154;51.550;12.138;2023-10-19T04:57:51;98791.25;;;12.16;67.64
12182;BME280;6154;51.550;12.138;2023-10-19T05:00:19;98799.34;;;12.15;67.80
12182;BME280;6154;51.550;12.138;2023-10-19T05:02:48;98794.03;;;12.15;67.67
12182;BME280;6154;51.550;12.138;2023-10-19T05:05:19;98793.06;;;12.16;67.94
12182;BME280;6154;51.550;12.138;2023-10-19T05:07:47;98796.69;;;12.15;68.03
12182;BME280;6154;51.550;12.138;2023-10-19T05:10:16;98797.66;;;12.14;67.78
12182;BME280;6154;51.550;12.138;2023-10-19T05:12:44;98801.97;;;12.15;68.13
12182;BME280;6154;51.550;12.138;2023-10-19T05:15:14;98802.69;;;12.17;68.11
12182;BME280;6154;51.550;12.138;2023-10-19T05:17:42;98804.41;;;12.37;67.49
12182;BME280;6154;51.550;12.138;2023-10-19T05:20:11;98803.13;;;12.31;67.51
12182;BME280;6154;51.550;12.138;2023-10-19T05:22:39;98807.91;;;12.37;67.44
12182;BME280;6154;51.550;12.138;2023-10-19T05:25:08;98796.44;;;12.27;67.71
12182;BME280;6154;51.550;12.138;2023-10-19T05:27:37;98800.22;;;12.34;67.77
12182;BME280;6154;51.550;12.138;2023-10-19T05:30:06;98796.09;;;12.11;68.24
12182;BME280;6154;51.550;12.138;2023-10-19T05:32:38;98792.50;;;12.22;68.13
12182;BME280;6154;51.550;12.138;2023-10-19T05:35:07;98793.16;;;12.04;68.37
12182;BME280;6154;51.550;12.138;2023-10-19T05:37:40;98796.37;;;12.08;68.15
12182;BME280;6154;51.550;12.138;2023-10-19T05:40:11;98786.88;;;12.05;68.41
12182;BME280;6154;51.550;12.138;2023-10-19T05:42:42;98780.38;;;12.29;68.26
12182;BME280;6154;51.550;12.138;2023-10-19T05:45:10;98779.59;;;11.98;69.18
12182;BME280;6154;51.550;12.138;2023-10-19T05:47:42;98781.81;;;12.33;67.79
12182;BME280;6154;51.550;12.138;2023-10-19T05:50:10;98783.47;;;12.34;68.01
12182;BME280;6154;51.550;12.138;2023-10-19T05:52:41;98792.41;;;12.33;67.99
12182;BME280;6154;51.550;12.138;2023-10-19T05:55:10;98794.78;;;12.36;67.90
12182;BME280;6154;51.550;12.138;2023-10-19T05:57:39;98791.34;;;12.05;68.61
12182;BME280;6154;51.550;12.138;2023-10-19T06:00:09;98790.28;;;12.27;68.56
12182;BME280;6154;51.550;12.138;2023-10-19T06:02:43;98781.63;;;12.25;68.32
12182;BME280;6154;51.550;12.138;2023-10-19T06:05:13;98787.78;;;12.25;68.35
12182;BME280;6154;51.550;12.138;2023-10-19T06:07:44;98795.03;;;12.23;68.23
12182;BME280;6154;51.550;12.138;2023-10-19T06:10:15;98795.91;;;12.33;67.95
12182;BME280;6154;51.550;12.138;2023-10-19T06:12:49;98792.44;;;12.43;67.91
12182;BME280;6154;51.550;12.138;2023-10-19T06:15:19;98784.59;;;12.41;67.96
12182;BME280;6154;51.550;12.138;2023-10-19T06:17:49;98782.63;;;12.24;68.45
12182;BME280;6154;51.550;12.138;2023-10-19T06:20:18;98787.47;;;12.19;68.83
12182;BME280;6154;51.550;12.138;2023-10-19T06:22:52;98786.12;;;12.34;68.28
12182;BME280;6154;51.550;12.138;2023-10-19T06:25:23;98783.06;;;12.38;68.39
12182;BME280;6154;51.550;12.138;2023-10-19T06:27:52;98792.97;;;12.36;68.52
12182;BME280;6154;51.550;12.138;2023-10-19T06:30:24;98787.66;;;12.36;68.47
12182;BME280;6154;51.550;12.138;2023-10-19T06:32:55;98790.31;;;12.36;68.49
12182;BME280;6154;51.550;12.138;2023-10-19T06:35:24;98797.28;;;12.37;68.31
12182;BME280;6154;51.550;12.138;2023-10-19T06:37:53;98797.13;;;12.29;68.80
12182;BME280;6154;51.550;12.138;2023-10-19T06:40:22;98802.47;;;12.49;68.29
12182;BME280;6154;51.550;12.138;2023-10-19T06:42:50;98799.81;;;12.49;67.83
12182;BME280;6154;51.550;12.138;2023-10-19T06:45:18;98807.62;;;12.41;68.52
12182;BME280;6154;51.550;12.138;2023-10-19T06:47:49;98807.22;;;12.45;68.33
12182;BME280;6154;51.550;12.138;2023-10-19T06:50:21;98800.66;;;12.49;68.23
12182;BME280;6154;51.550;12.138;2023-10-19T06:52:50;98799.50;;;12.32;68.54
12182;BME280;6154;51.550;12.138;2023-10-19T06:55:18;98807.97;;;12.76;67.64
12182;BME280;6154;51.550;12.138;2023-10-19T06:57:48;98795.69;;;12.75;67.33
12182;BME280;6154;51.550;12.138;2023-10-19T07:00:20;98807.44;;;12.73;67.03
12182;BME280;6154;51.550;12.138;2023-10-19T07:02:50;98806.00;;;12.78;67.21
12182;BME280;6154;51.550;12.138;2023-10-19T07:05:20;98796.94;;;12.81;66.93
12182;BME280;6154;51.550;12.138;2023-10-19T07:07:51;98799.47;;;12.73;67.20
12182;BME280;6154;51.550;12.138;2023-10-19T07:10:23;98789.78;;;12.72;67.78
12182;BME280;6154;51.550;12.138;2023-10-19T07:12:54;98782.25;;;12.77;67.82
12182;BME280;6154;51.550;12.138;2023-10-19T07:15:22;98775.81;;;12.50;68.48
12182;BME280;6154;51.550;12.138;2023-10-19T07:17:52;98781.00;;;12.71;68.20
12182;BME280;6154;51.550;12.138;2023-10-19T07:20:25;98778.47;;;12.70;68.58
12182;BME280;6154;51.550;12.138;2023-10-19T07:22:56;98769.00;;;12.67;68.15
12182;BME280;6154;51.550;12.138;2023-10-19T07:25:27;98770.25;;;12.73;68.35
12182;BME280;6154;51.550;12.138;2023-10-19T07:27:56;98769.28;;;12.74;68.00
12182;BME280;6154;51.550;12.138;2023-10-19T07:30:27;98763.25;;;12.72;68.18
12182;BME280;6154;51.550;12.138;2023-10-19T07:32:55;98761.72;;;12.69;68.56
12182;BME280;6154;51.550;12.138;2023-10-19T07:35:27;98765.78;;;12.73;68.81
12182;BME280;6154;51.550;12.138;2023-10-19T07:38:02;98766.34;;;12.77;68.75
12182;BME280;6154;51.550;12.138;2023-10-19T07:40:31;98757.53;;;13.05;68.11
12182;BME280;6154;51.550;12.138;2023-10-19T07:43:00;98747.88;;;13.14;68.42
12182;BME280;6154;51.550;12.138;2023-10-19T07:45:28;98753.88;;;13.16;68.75
12182;BME280;6154;51.550;12.138;2023-10-19T07:47:58;98755.12;;;13.12;68.30
12182;BME280;6154;51.550;12.138;2023-10-19T07:50:36;98745.91;;;13.16;68.12
12182;BME280;6154;51.550;12.138;2023-10-19T07:53:04;98745.94;;;13.26;68.47
12182;BME280;6154;51.550;12.138;2023-10-19T07:55:32;98755.97;;;13.32;67.56
12182;BME280;6154;51.550;12.138;2023-10-19T07:58:01;98746.44;;;13.39;67.38
12182;BME280;6154;51.550;12.138;2023-10-19T08:00:30;98746.16;;;13.32;67.66
12182;BME280;6154;51.550;12.138;2023-10-19T08:03:01;98745.09;;;13.25;68.06
12182;BME280;6154;51.550;12.138;2023-10-19T08:05:30;98735.97;;;13.37;67.72
12182;BME280;6154;51.550;12.138;2023-10-19T08:07:59;98731.59;;;13.46;67.69
12182;BME280;6154;51.550;12.138;2023-10-19T08:10:31;98739.12;;;13.50;66.91
12182;BME280;6154;51.550;12.138;2023-10-19T08:12:59;98736.75;;;13.57;66.88
12182;BME280;6154;51.550;12.138;2023-10-19T08:15:28;98741.06;;;13.58;67.21
12182;BME280;6154;51.550;12.138;2023-10-19T08:17:58;98738.22;;;13.69;67.58
12182;BME280;6154;51.550;12.138;2023-10-19T08:20:26;98739.06;;;13.70;67.46
12182;BME280;6154;51.550;12.138;2023-10-19T08:23:00;98749.09;;;13.86;66.98
12182;BME280;6154;51.550;12.138;2023-10-19T08:25:29;98746.53;;;13.94;67.25
12182;BME280;6154;51.550;12.138;2023-10-19T08:28:01;98740.12;;;13.87;66.94
12182;BME280;6154;51.550;12.138;2023-10-19T08:30:29;98748.16;;;14.04;66.79
12182;BME280;6154;51.550;12.138;2023-10-19T08:32:57;98736.06;;;14.10;66.78
12182;BME280;6154;51.550;12.138;2023-10-19T08:35:26;98733.13;;;14.13;66.53
12182;BME280;6154;51.550;12.138;2023-10-19T08:37:55;98742.78;;;14.14;66.66
12182;BME280;6154;51.550;12.138;2023-10-19T08:40:26;98744.63;;;14.14;66.91
12182;BME280;6154;51.550;12.138;2023-10-19T08:42:55;98739.31;;;14.31;66.64
12182;BME280;6154;51.550;12.138;2023-10-19T08:45:24;98737.88;;;14.37;66.47
12182;BME280;6154;51.550;12.138;2023-10-19T08:47:54;98742.63;;;14.43;66.77
12182;BME280;6154;51.550;12.138;2023-10-19T08:50:24;98730.88;;;14.36;66.21
12182;BME280;6154;51.550;12.138;2023-10-19T08:52:55;98727.34;;;14.45;66.60
12182;BME280;6154;51.550;12.138;2023-10-19T08:55:26;98734.19;;;14.48;67.12
12182;BME280;6154;51.550;12.138;2023-10-19T08:58:11;98726.06;;;14.49;67.01
12182;BME280;6154;51.550;12.138;2023-10-19T09:00:44;98726.28;;;14.56;66.56
12182;BME280;6154;51.550;12.138;2023-10-19T09:03:15;98722.09;;;14.71;nan
12182;BME280;6154;51.550;12.138;2023-10-19T09:05:44;98716.75;;;14.89;66.37
12182;BME280;6154;51.550;12.138;2023-10-19T09:08:15;98720.87;;;14.83;66.74
12182;BME280;6154;51.550;12.138;2023-10-19T09:10:48;98713.09;;;14.90;67.15
12182;BME280;6154;51.550;12.138;2023-10-19T09:13:19;98716.78;;;15.15;67.45
12182;BME280;6154;51.550;12.138;2023-10-19T09:15:49;98719.84;;;15.02;66.72
12182;BME280;6154;51.550;12.138;2023-10-19T09:18:23;98711.22;;;15.26;66.53
12182;BME280;6154;51.550;12.138;2023-10-19T09:20:52;98715.44;;;15.37;66.17
12182;BME280;6154;51.550;12.138;2023-10-19T09:23:21;98713.00;;;15.51;66.14
12182;BME280;6154;51.550;12.138;2023-10-19T09:25:52;98707.38;;;15.55;66.40
12182;BME280;6154;51.550;12.138;2023-10-19T09:28:21;98705.31;;;15.66;67.46
12182;BME280;6154;51.550;12.138;2023-10-19T09:30:52;98703.16;;;15.70;66.81
12182;BME280;6154;51.550;12.138;2023-10-19T09:33:21;98698.19;;;15.75;65.90
12182;BME280;6154;51.550;12.138;2023-10-19T09:35:51;98703.84;;;15.80;65.76
12182;BME280;6154;51.550;12.138;2023-10-19T09:38:23;98699.19;;;15.82;65.83
12182;BME280;6154;51.550;12.138;2023-10-19T09:40:54;98690.50;;;15.80;66.33
12182;BME280;6154;51.550;12.138;2023-10-19T09:43:30;98685.62;;;16.18;66.16
12182;BME280;6154;51.550;12.138;2023-10-19T09:46:04;98675.00;;;16.42;65.88
12182;BME280;6154;51.550;12.138;2023-10-19T09:48:39;98678.34;;;16.44;66.01
12182;BME280;6154;51.550;12.138;2023-10-19T09:51:10;98658.50;;;16.55;66.64
12182;BME280;6154;51.550;12.138;2023-10-19T09:53:44;98665.88;;;16.69;66.44
12182;BME280;6154;51.550;12.138;2023-10-19T09:56:20;98658.87;;;16.68;66.16
12182;BME280;6154;51.550;12.138;2023-10-19T09:58:52;98657.50;;;16.72;65.47
12182;BME280;6154;51.550;12.138;2023-10-19T10:01:22;98675.41;;;16.88;66.33
12182;BME280;6154;51.550;12.138;2023-10-19T10:03:52;98680.38;;;16.99;65.38
12182;BME280;6154;51.550;12.138;2023-10-19T10:06:28;98680.03;;;17.10;65.47
12182;BME280;6154;51.550;12.138;2023-10-19T10:08:59;98678.38;;;17.09;65.89
12182;BME280;6154;51.550;12.138;2023-10-19T10:11:31;98672.03;;;17.10;66.67
12182;BME280;6154;51.550;12.138;2023-10-19T10:14:20;98667.31;;;17.29;66.76
12182;BME280;6154;51.550;12.138;2023-10-19T10:16:59;98679.00;;;17.36;65.49
12182;BME280;6154;51.550;12.138;2023-10-19T10:19:29;98678.66;;;17.39;65.97
12182;BME280;6154;51.550;12.138;2023-10-19T10:22:04;98673.13;;;17.48;66.52
12182;BME280;6154;51.550;12.138;2023-10-19T10:24:40;98668.06;;;17.53;66.67
12182;BME280;6154;51.550;12.138;2023-10-19T10:27:10;98659.91;;;17.47;67.23
12182;BME280;6154;51.550;12.138;2023-10-19T10:29:54;98652.97;;;17.69;66.18
12182;BME280;6154;51.550;12.138;2023-10-19T10:32:44;98646.13;;;17.74;64.85
12182;BME280;6154;51.550;12.138;2023-10-19T10:38:18;98649.94;;;17.80;63.88
12182;BME280;6154;51.550;12.138;2023-10-19T10:40:48;98650.88;;;17.95;64.97
12182;BME280;6154;51.550;12.138;2023-10-19T10:43:19;98665.06;;;18.04;65.40
12182;BME280;6154;51.550;12.138;2023-10-19T10:45:48;98661.41;;;17.97;65.97
12182;BME280;6154;51.550;12.138;2023-10-19T10:48:18;98654.25;;;17.89;66.14
12182;BME280;6154;51.550;12.138;2023-10-19T10:50:46;98637.00;;;17.92;66.40
12182;BME280;6154;51.550;12.138;2023-10-19T10:53:15;98639.72;;;17.84;66.46
12182;BME280;6154;51.550;12.138;2023-10-19T10:55:43;98642.34;;;17.92;66.64
12182;BME280;6154;51.550;12.138;2023-10-19T10:58:15;98636.44;;;18.04;66.46
12182;BME280;6154;51.550;12.138;2023-10-19T11:00:45;98639.53;;;18.16;66.66
12182;BME280;6154;51.550;12.138;2023-10-19T11:03:16;98630.09;;;18.28;66.29
12182;BME280;6154;51.550;12.138;2023-10-19T11:05:47;98628.00;;;18.38;66.18
12182;BME280;6154;51.550;12.138;2023-10-19T11:08:16;98622.06;;;18.74;65.80
12182;BME280;6154;51.550;12.138;2023-10-19T11:10:48;98617.28;;;18.84;65.63
12182;BME280;6154;51.550;12.138;2023-10-19T11:13:23;98612.22;;;19.04;65.61
12182;BME280;6154;51.550;12.138;2023-10-19T11:15:54;98615.59;;;18.83;63.55
12182;BME280;6154;51.550;12.138;2023-10-19T11:18:30;98620.69;;;18.93;65.73
12182;BME280;6154;51.550;12.138;2023-10-19T11:21:00;98614.78;;;18.98;66.12
12182;BME280;6154;51.550;12.138;2023-10-19T11:23:38;98610.53;;;19.03;65.59
12182;BME280;6154;51.550;12.138;2023-10-19T11:26:08;98607.22;;;19.01;64.27
12182;BME280;6154;51.550;12.138;2023-10-19T11:28:38;98617.84;;;18.94;64.87
12182;BME280;6154;51.550;12.138;2023-10-19T11:31:16;98611.16;;;18.76;64.60
12182;BME280;6154;51.550;12.138;2023-10-19T11:33:45;98610.81;;;18.93;64.46
12182;BME280;6154;51.550;12.138;2023-10-19T11:36:16;98600.56;;;19.12;65.33
12182;BME280;6154;51.550;12.138;2023-10-19T11:38:45;98597.87;;;19.12;65.44
12182;BME280;6154;51.550;12.138;2023-10-19T11:41:15;98601.41;;;19.27;65.44
12182;BME280;6154;51.550;12.138;2023-10-19T11:43:45;98589.81;;;19.41;65.03
12182;BME280;6154;51.550;12.138;2023-10-19T11:46:15;98597.81;;;19.64;64.96
12182;BME280;6154;51.550;12.138;2023-10-19T11:48:45;98596.66;;;19.73;64.68
12182;BME280;6154;51.550;12.138;2023-10-19T11:51:13;98599.63;;;19.78;64.71
12182;BME280;6154;51.550;12.138;2023-10-19T11:53:42;98590.84;;;19.70;64.93
12182;BME280;6154;51.550;12.138;2023-10-19T11:56:12;98584.75;;;19.97;65.09
12182;BME280;6154;51.550;12.138;2023-10-19T11:58:43;98588.59;;;20.09;65.02
12182;BME280;6154;51.550;12.138;2023-10-19T12:01:16;98581.66;;;20.15;65.18
12182;BME280;6154;51.550;12.138;2023-10-19T12:03:45;98590.97;;;20.19;65.19
12182;BME280;6154;51.550;12.138;2023-10-19T12:06:15;98578.66;;;20.25;65.03
12182;BME280;6154;51.550;12.138;2023-10-19T12:08:47;98586.56;;;20.33;65.06
12182;BME280;6154;51.550;12.138;2023-10-19T12:11:15;98582.00;;;20.33;64.83
12182;BME280;6154;51.550;12.138;2023-10-19T12:13:44;98588.94;;;20.43;64.83
12182;BME280;6154;51.550;12.138;2023-10-19T12:16:13;98577.19;;;20.72;64.70
12182;BME280;6154;51.550;12.138;2023-10-19T12:18:44;98565.00;;;21.04;64.64
12182;BME280;6154;51.550;12.138;2023-10-19T12:21:16;98558.38;;;21.28;63.93
12182;BME280;6154;51.550;12.138;2023-10-19T12:23:46;98570.84;;;21.42;64.01
12182;BME280;6154;51.550;12.138;2023-10-19T12:26:18;98569.44;;;21.46;63.90
12182;BME280;6154;51.550;12.138;2023-10-19T12:28:47;98559.47;;;21.40;63.78
12182;BME280;6154;51.550;12.138;2023-10-19T12:31:16;98558.84;;;21.38;63.61
12182;BME280;6154;51.550;12.138;2023-10-19T12:33:48;98552.03;;;21.14;63.71
12182;BME280;6154;51.550;12.138;2023-10-19T12:36:16;98563.44;;;21.16;63.59
12182;BME280;6154;51.550;12.138;2023-10-19T12:38:58;98552.63;;;21.09;63.97
12182;BME280;6154;51.550;12.138;2023-10-19T12:41:28;98565.31;;;21.15;63.69
12182;BME280;6154;51.550;12.138;2023-10-19T12:43:56;98562.56;;;21.09;63.54
12182;BME280;6154;51.550;12.138;2023-10-19T12:46:26;98552.16;;;20.99;63.43
12182;BME280;6154;51.550;12.138;2023-10-19T12:48:57;98547.75;;;20.91;63.63
12182;BME280;6154;51.550;12.138;2023-10-19T12:51:26;98552.22;;;20.78;63.57
12182;BME280;6154;51.550;12.138;2023-10-19T12:53:54;98550.56;;;20.77;63.24
12182;BME280;6154;51.550;12.138;2023-10-19T12:56:23;98555.06;;;20.70;63.30
12182;BME280;6154;51.550;12.138;2023-10-19T12:58:56;98558.50;;;20.57;63.27
12182;BME280;6154;51.550;12.138;2023-10-19T13:01:24;98554.69;;;20.45;63.23
12182;BME280;6154;51.550;12.138;2023-10-19T13:03:55;98553.28;;;20.34;63.36
12182;BME280;6154;51.550;12.138;2023-10-19T13:06:25;98544.69;;;20.17;63.61
12182;BME280;6154;51.550;12.138;2023-10-19T13:08:56;98545.63;;;20.09;63.85
12182;BME280;6154;51.550;12.138;2023-10-19T13:11:28;98537.25;;;20.19;63.41
12182;BME280;6154;51.550;12.138;2023-10-19T13:13:59;98538.72;;;20.22;63.34
12182;BME280;6154;51.550;12.138;2023-10-19T13:16:27;98540.88;;;20.12;63.48
12182;BME280;6154;51.550;12.138;2023-10-19T13:18:58;98540.47;;;20.08;63.67
12182;BME280;6154;51.550;12.138;2023-10-19T13:21:37;98532.59;;;19.85;63.85
12182;BME280;6154;51.550;12.138;2023-10-19T13:24:06;98530.03;;;19.77;64.04